JA329E RJFK-RJFK

Flight info

Callsign JA329E
Flight time 0h 9m
Altitude 2000
Route VFR TGL
Aircraft C172/L-SFG/C

Departure

Time 2026-05-08 13:04
Airport Kagoshima Airport (RJFK)

Arrival

Time 2026-05-08 13:13
Airport Kagoshima Airport (RJFK)
Time Latitude Longitude Altitude Speed Heading
2026-05-08 12:53 31.79228 130.72370 852 ft 0 kts 297°
2026-05-08 12:57 31.79232 130.72366 849 ft 2 kts 330°
2026-05-08 12:57 31.79258 130.72352 848 ft 5 kts 335°
2026-05-08 12:57 31.79289 130.72348 847 ft 5 kts 44°
2026-05-08 12:57 31.79312 130.72382 847 ft 5 kts 51°
2026-05-08 12:58 31.79316 130.72411 847 ft 3 kts 139°
2026-05-08 12:58 31.79276 130.72434 848 ft 10 kts 150°
2026-05-08 12:58 31.79213 130.72476 848 ft 10 kts 151°
2026-05-08 12:58 31.79152 130.72518 847 ft 11 kts 150°
2026-05-08 12:59 31.79118 130.72577 845 ft 6 kts 88°
2026-05-08 12:59 31.79130 130.72618 846 ft 5 kts 59°
2026-05-08 12:59 31.79138 130.72635 846 ft 0 kts 59°
2026-05-08 13:01 31.79147 130.72652 842 ft 6 kts 60°
2026-05-08 13:01 31.79171 130.72692 842 ft 5 kts 38°
2026-05-08 13:02 31.79194 130.72703 843 ft 3 kts
2026-05-08 13:02 31.79214 130.72700 842 ft 2 kts 338°
2026-05-08 13:02 31.79219 130.72696 841 ft 0 kts 330°
2026-05-08 13:03 31.79264 130.72666 844 ft 27 kts 330°
2026-05-08 13:03 31.79552 130.72471 851 ft 67 kts 330°
2026-05-08 13:04 31.79989 130.72171 1025 ft 74 kts 332°
2026-05-08 13:04 31.80441 130.71867 1271 ft 74 kts 332°
2026-05-08 13:04 31.80878 130.71559 1546 ft 72 kts 332°
2026-05-08 13:04 31.81311 130.71264 1812 ft 75 kts 334°
2026-05-08 13:05 31.81784 130.70929 2005 ft 80 kts 333°
2026-05-08 13:05 31.82198 130.70452 2055 ft 94 kts 297°
2026-05-08 13:05 31.82079 130.69658 2009 ft 114 kts 248°
2026-05-08 13:05 31.81686 130.68859 1956 ft 113 kts 251°
2026-05-08 13:06 31.81313 130.68070 1872 ft 113 kts 250°
2026-05-08 13:06 31.80932 130.67263 1847 ft 112 kts 250°
2026-05-08 13:06 31.80286 130.66723 1812 ft 124 kts 196°
2026-05-08 13:06 31.79457 130.66912 1766 ft 120 kts 152°
2026-05-08 13:07 31.78746 130.67367 1813 ft 114 kts 149°
2026-05-08 13:07 31.78072 130.67832 1795 ft 110 kts 146°
2026-05-08 13:07 31.77412 130.68268 1792 ft 109 kts 150°
2026-05-08 13:07 31.76763 130.68714 1800 ft 110 kts 149°
2026-05-08 13:08 31.76089 130.69149 1833 ft 110 kts 150°
2026-05-08 13:08 31.75392 130.69627 1806 ft 120 kts 148°
2026-05-08 13:08 31.74659 130.70135 1733 ft 122 kts 147°
2026-05-08 13:08 31.73944 130.70584 1793 ft 123 kts 150°
2026-05-08 13:09 31.73091 130.70606 1792 ft 123 kts 216°
2026-05-08 13:09 31.72746 130.69879 1826 ft 97 kts 287°
2026-05-08 13:09 31.73200 130.69426 1851 ft 99 kts 355°
2026-05-08 13:09 31.73880 130.69799 1794 ft 110 kts 30°
2026-05-08 13:10 31.74491 130.70332 1810 ft 111 kts 30°
2026-05-08 13:10 31.75053 130.70833 1788 ft 93 kts 33°
2026-05-08 13:10 31.75443 130.71414 1736 ft 95 kts 52°
2026-05-08 13:10 31.75767 130.72086 1601 ft 93 kts 54°
2026-05-08 13:11 31.76067 130.72731 1414 ft 85 kts 52°
2026-05-08 13:11 31.76341 130.73318 1347 ft 80 kts 53°
2026-05-08 13:11 31.76603 130.73863 1317 ft 77 kts 50°
2026-05-08 13:11 31.76948 130.74224 1254 ft 62 kts 352°
2026-05-08 13:12 31.77343 130.73991 1189 ft 68 kts 328°
2026-05-08 13:12 31.77760 130.73680 1105 ft 71 kts 332°
2026-05-08 13:12 31.78174 130.73397 1078 ft 69 kts 331°
2026-05-08 13:12 31.78582 130.73127 1024 ft 68 kts 331°
2026-05-08 13:13 31.79003 130.72840 948 ft 69 kts 330°
2026-05-08 13:13 31.79398 130.72574 862 ft 62 kts 330°
2026-05-08 13:13 31.79700 130.72372 848 ft 38 kts 329°
2026-05-08 13:13 31.80019 130.72157 859 ft 69 kts 330°
2026-05-08 13:14 31.80455 130.71858 1055 ft 73 kts 331°
2026-05-08 13:14 31.80897 130.71556 1304 ft 74 kts 330°
2026-05-08 13:14 31.81345 130.71238 1555 ft 76 kts 334°
2026-05-08 13:14 31.81810 130.70926 1788 ft 80 kts 334°
2026-05-08 13:15 31.82228 130.70513 1791 ft 86 kts 302°
2026-05-08 13:15 31.82182 130.69773 1784 ft 104 kts 248°
2026-05-08 13:15 31.81824 130.69056 1817 ft 103 kts 250°
2026-05-08 13:15 31.81468 130.68313 1814 ft 105 kts 246°
2026-05-08 13:16 31.81090 130.67568 1866 ft 106 kts 248°
2026-05-08 13:16 31.80687 130.66813 1915 ft 115 kts 237°
2026-05-08 13:16 31.79978 130.66329 1807 ft 128 kts 195°
2026-05-08 13:16 31.79130 130.66493 1786 ft 123 kts 152°
2026-05-08 13:17 31.78406 130.66974 1799 ft 117 kts 148°
2026-05-08 13:17 31.77671 130.67452 1811 ft 124 kts 148°
2026-05-08 13:17 31.76909 130.67959 1814 ft 126 kts 149°
2026-05-08 13:17 31.76146 130.68478 1798 ft 129 kts 146°
2026-05-08 13:18 31.75364 130.68984 1786 ft 127 kts 150°
2026-05-08 13:18 31.74625 130.69483 1803 ft 120 kts 148°
2026-05-08 13:18 31.73844 130.69754 1810 ft 123 kts 193°
2026-05-08 13:18 31.73266 130.69182 1867 ft 109 kts 261°
2026-05-08 13:19 31.73470 130.68453 1814 ft 94 kts 327°
2026-05-08 13:19 31.74085 130.68323 1813 ft 98 kts 19°
2026-05-08 13:19 31.74379 130.69038 1807 ft 110 kts 91°
2026-05-08 13:19 31.73848 130.69696 1829 ft 122 kts 156°
2026-05-08 13:20 31.73047 130.69615 1805 ft 114 kts 227°
2026-05-08 13:20 31.72823 130.68860 1810 ft 95 kts 296°
2026-05-08 13:20 31.73274 130.68378 1809 ft 88 kts 329°
2026-05-08 13:20 31.73852 130.68173 1811 ft 94 kts 10°
2026-05-08 13:21 31.74216 130.68809 1810 ft 109 kts 85°
2026-05-08 13:21 31.73747 130.69562 1823 ft 133 kts 154°
2026-05-08 13:21 31.72856 130.69529 1845 ft 128 kts 217°
2026-05-08 13:21 31.72470 130.68752 1809 ft 103 kts 284°
2026-05-08 13:22 31.72868 130.68181 1811 ft 91 kts 332°
2026-05-08 13:22 31.73241 130.67971 1806 ft 89 kts 338°
2026-05-08 13:22 31.73833 130.68023 1806 ft 98 kts 33°
2026-05-08 13:22 31.74165 130.68740 1827 ft 103 kts 67°
2026-05-08 13:23 31.73875 130.69562 1838 ft 128 kts 136°
2026-05-08 13:23 31.73011 130.69755 1796 ft 125 kts 207°
2026-05-08 13:23 31.72508 130.69075 1811 ft 102 kts 274°
2026-05-08 13:23 31.72662 130.68324 1809 ft 91 kts 307°
2026-05-08 13:24 31.73116 130.67845 1806 ft 87 kts 336°
2026-05-08 13:24 31.73717 130.67810 1805 ft 93 kts 14°
2026-05-08 13:24 31.74200 130.68320 1803 ft 100 kts 53°
2026-05-08 13:24 31.74278 130.69133 1800 ft 107 kts 98°
2026-05-08 13:25 31.73772 130.69840 1784 ft 127 kts 152°
2026-05-08 13:25 31.72958 130.69791 1821 ft 117 kts 225°
2026-05-08 13:25 31.72666 130.69032 1809 ft 96 kts 289°
2026-05-08 13:25 31.72944 130.68375 1808 ft 87 kts 320°
2026-05-08 13:26 31.73472 130.68093 1842 ft 87 kts 350°
2026-05-08 13:26 31.74086 130.68233 1800 ft 94 kts 26°
2026-05-08 13:26 31.74443 130.68853 1794 ft 96 kts 69°
2026-05-08 13:26 31.74124 130.69556 1818 ft 114 kts 153°
2026-05-08 13:27 31.73332 130.69496 1866 ft 116 kts 226°
2026-05-08 13:27 31.73042 130.68714 1816 ft 101 kts 292°
2026-05-08 13:27 31.73500 130.68247 1874 ft 89 kts 343°
2026-05-08 13:27 31.74125 130.68271 1802 ft 92 kts 15°
2026-05-08 13:28 31.74492 130.68833 1794 ft 97 kts 82°
2026-05-08 13:28 31.74048 130.69446 1820 ft 112 kts 167°
2026-05-08 13:28 31.73268 130.69176 1806 ft 126 kts 232°
2026-05-08 13:28 31.73075 130.68348 1815 ft 97 kts 294°
2026-05-08 13:29 31.73411 130.67735 1812 ft 86 kts 328°
2026-05-08 13:29 31.74008 130.67631 1855 ft 99 kts
2026-05-08 13:29 31.74562 130.68140 1798 ft 101 kts 46°
2026-05-08 13:29 31.74588 130.68952 1781 ft 115 kts 114°
2026-05-08 13:30 31.73951 130.69479 1830 ft 118 kts 165°
2026-05-08 13:30 31.73083 130.69328 1801 ft 135 kts 219°
2026-05-08 13:30 31.72724 130.68508 1805 ft 102 kts 288°
2026-05-08 13:30 31.73095 130.67925 1808 ft 86 kts 336°
2026-05-08 13:31 31.73642 130.67901 1808 ft 80 kts 12°
2026-05-08 13:31 31.74096 130.68350 1792 ft 90 kts 44°
2026-05-08 13:31 31.74408 130.68978 1781 ft 86 kts 49°
2026-05-08 13:31 31.74681 130.69560 1813 ft 81 kts 51°
2026-05-08 13:32 31.74973 130.70152 1724 ft 86 kts 53°
2026-05-08 13:32 31.75265 130.70762 1712 ft 84 kts 52°
2026-05-08 13:32 31.75548 130.71341 1787 ft 80 kts 52°
2026-05-08 13:32 31.75823 130.71917 1899 ft 85 kts 50°
2026-05-08 13:33 31.76132 130.72557 1858 ft 94 kts 51°
2026-05-08 13:33 31.76462 130.73233 1774 ft 96 kts 51°
2026-05-08 13:33 31.76820 130.73816 1624 ft 78 kts 26°
2026-05-08 13:33 31.77313 130.73924 1463 ft 72 kts 344°
2026-05-08 13:34 31.77764 130.73675 1237 ft 69 kts 333°
2026-05-08 13:34 31.78135 130.73432 1146 ft 56 kts 331°
2026-05-08 13:34 31.78480 130.73198 1072 ft 61 kts 329°
2026-05-08 13:34 31.78862 130.72940 1005 ft 64 kts 331°
2026-05-08 13:35 31.79226 130.72692 930 ft 57 kts 330°
2026-05-08 13:35 31.79526 130.72488 880 ft 42 kts 331°
2026-05-08 13:35 31.79799 130.72305 883 ft 62 kts 330°
2026-05-08 13:35 31.80220 130.72018 1033 ft 73 kts 330°
2026-05-08 13:36 31.80670 130.71711 1262 ft 74 kts 333°
2026-05-08 13:36 31.81124 130.71417 1485 ft 78 kts 331°
2026-05-08 13:36 31.81594 130.71077 1740 ft 81 kts 332°
2026-05-08 13:36 31.82074 130.70713 1857 ft 82 kts 316°
2026-05-08 13:37 31.82149 130.70019 1879 ft 99 kts 263°
2026-05-08 13:37 31.81801 130.69274 1937 ft 104 kts 252°
2026-05-08 13:37 31.81459 130.68503 1887 ft 108 kts 251°
2026-05-08 13:37 31.81099 130.67725 1872 ft 111 kts 250°
2026-05-08 13:38 31.80654 130.66960 1867 ft 119 kts 225°
2026-05-08 13:38 31.79870 130.66611 1810 ft 123 kts 187°
2026-05-08 13:38 31.79057 130.66825 1911 ft 120 kts 152°
2026-05-08 13:38 31.78308 130.67315 1871 ft 123 kts 149°
2026-05-08 13:39 31.77574 130.67821 1832 ft 124 kts 151°
2026-05-08 13:39 31.76840 130.68270 1877 ft 120 kts 148°
2026-05-08 13:39 31.76075 130.68720 1898 ft 124 kts 153°
2026-05-08 13:39 31.75279 130.69191 1853 ft 132 kts 148°
2026-05-08 13:40 31.74504 130.69703 1820 ft 127 kts 150°
2026-05-08 13:40 31.73739 130.70164 1831 ft 130 kts 170°
2026-05-08 13:40 31.72926 130.69870 1833 ft 123 kts 239°
2026-05-08 13:40 31.72782 130.69037 1849 ft 97 kts 294°
2026-05-08 13:41 31.73116 130.68424 1850 ft 85 kts 326°
2026-05-08 13:41 31.73649 130.68244 1854 ft 83 kts
2026-05-08 13:41 31.74115 130.68660 1854 ft 91 kts 51°
2026-05-08 13:41 31.74095 130.69467 1844 ft 117 kts 120°
2026-05-08 13:42 31.73366 130.69863 1846 ft 118 kts 192°
2026-05-08 13:42 31.72798 130.69319 1849 ft 105 kts 263°
2026-05-08 13:42 31.72930 130.68596 1853 ft 88 kts 311°
2026-05-08 13:42 31.73382 130.68187 1870 ft 80 kts 345°
2026-05-08 13:43 31.73929 130.68173 1848 ft 81 kts 14°
2026-05-08 13:43 31.74302 130.68676 1840 ft 91 kts 65°
2026-05-08 13:43 31.74031 130.69357 1857 ft 107 kts 155°
2026-05-08 13:43 31.73261 130.69266 1854 ft 123 kts 223°
2026-05-08 13:44 31.72974 130.68496 1857 ft 96 kts 290°
2026-05-08 13:44 31.73321 130.67952 1843 ft 78 kts 347°
2026-05-08 13:44 31.73705 130.68307 1841 ft 91 kts 73°
2026-05-08 13:44 31.73359 130.69049 1859 ft 122 kts 136°
2026-05-08 13:45 31.72654 130.69580 1853 ft 118 kts 148°
2026-05-08 13:45 31.72049 130.70169 1835 ft 109 kts 107°
2026-05-08 13:45 31.72145 130.70922 1831 ft 90 kts 48°
2026-05-08 13:45 31.72459 130.71558 1831 ft 90 kts 50°
2026-05-08 13:46 31.72788 130.72244 1856 ft 107 kts 51°
2026-05-08 13:46 31.73186 130.73027 1854 ft 112 kts 52°
2026-05-08 13:46 31.73584 130.73786 1847 ft 108 kts 52°
2026-05-08 13:46 31.73953 130.74536 1842 ft 104 kts 52°
2026-05-08 13:47 31.74316 130.75258 1840 ft 98 kts 45°
2026-05-08 13:47 31.74844 130.75630 1827 ft 85 kts 357°
2026-05-08 13:47 31.75371 130.75345 1725 ft 86 kts 326°
2026-05-08 13:47 31.75864 130.74952 1689 ft 86 kts 330°
2026-05-08 13:48 31.76376 130.74600 1549 ft 84 kts 333°
2026-05-08 13:48 31.76885 130.74271 1575 ft 84 kts 332°
2026-05-08 13:48 31.77404 130.73920 1391 ft 87 kts 331°
2026-05-08 13:48 31.77923 130.73570 1255 ft 82 kts 332°
2026-05-08 13:49 31.78378 130.73269 1114 ft 68 kts 330°
2026-05-08 13:49 31.78780 130.72991 1020 ft 68 kts 330°
2026-05-08 13:49 31.79176 130.72727 931 ft 60 kts 330°
2026-05-08 13:49 31.79482 130.72520 879 ft 44 kts 328°
2026-05-08 13:50 31.79740 130.72345 881 ft 57 kts 330°
2026-05-08 13:50 31.80146 130.72063 1006 ft 73 kts 329°
2026-05-08 13:50 31.80608 130.71758 1179 ft 81 kts 333°
2026-05-08 13:50 31.81109 130.71430 1388 ft 83 kts 329°
2026-05-08 13:51 31.81613 130.71087 1657 ft 82 kts 331°
2026-05-08 13:51 31.82096 130.70686 1833 ft 90 kts 316°
2026-05-08 13:51 31.82170 130.69930 1913 ft 106 kts 261°
2026-05-08 13:51 31.81794 130.69137 1883 ft 111 kts 251°
2026-05-08 13:52 31.81408 130.68345 1869 ft 112 kts 251°
2026-05-08 13:52 31.81024 130.67554 1907 ft 111 kts 250°
2026-05-08 13:52 31.80531 130.66821 1906 ft 122 kts 219°
2026-05-08 13:52 31.79694 130.66626 1830 ft 128 kts 171°
2026-05-08 13:53 31.78922 130.67059 1934 ft 124 kts 150°
2026-05-08 13:53 31.78157 130.67542 1917 ft 124 kts 146°
2026-05-08 13:53 31.77405 130.68024 1876 ft 124 kts 148°
2026-05-08 13:53 31.76643 130.68541 1867 ft 125 kts 149°
2026-05-08 13:54 31.75884 130.69050 1825 ft 126 kts 149°
2026-05-08 13:54 31.75111 130.69571 1798 ft 129 kts 150°
2026-05-08 13:54 31.74385 130.70065 1788 ft 117 kts 151°
2026-05-08 13:54 31.73566 130.70026 1798 ft 125 kts 219°
2026-05-08 13:55 31.73143 130.69238 1836 ft 111 kts 265°
2026-05-08 13:55 31.73175 130.68388 1805 ft 98 kts 295°
2026-05-08 13:55 31.74069 130.67825 1792 ft 97 kts 41°
2026-05-08 13:56 31.74119 130.68626 1802 ft 109 kts 107°
2026-05-08 13:56 31.73657 130.69429 1798 ft 131 kts 133°
2026-05-08 13:56 31.72861 130.69947 1837 ft 133 kts 177°
2026-05-08 13:56 31.72086 130.69582 1804 ft 115 kts 243°
2026-05-08 13:57 31.72055 130.68801 1808 ft 91 kts 313°
2026-05-08 13:57 31.72553 130.68400 1804 ft 87 kts 330°
2026-05-08 13:57 31.73062 130.68025 1803 ft 85 kts 331°
2026-05-08 13:57 31.73542 130.67651 1802 ft 82 kts 330°
2026-05-08 13:58 31.74116 130.67693 1807 ft 101 kts 29°
2026-05-08 13:58 31.74475 130.68388 1800 ft 102 kts 70°
2026-05-08 13:58 31.74375 130.69207 1793 ft 107 kts 118°
2026-05-08 13:58 31.73687 130.69534 1809 ft 125 kts 194°
2026-05-08 13:59 31.73032 130.68931 1801 ft 114 kts 257°
2026-05-08 13:59 31.73070 130.68108 1807 ft 95 kts 300°
2026-05-08 13:59 31.73490 130.67607 1813 ft 84 kts 343°
2026-05-08 13:59 31.74078 130.67786 1772 ft 103 kts 36°
2026-05-08 14:00 31.74295 130.68558 1796 ft 109 kts 94°
2026-05-08 14:00 31.73796 130.69236 1817 ft 126 kts 161°
2026-05-08 14:00 31.72942 130.69089 1794 ft 123 kts 225°
2026-05-08 14:00 31.72693 130.68304 1805 ft 96 kts 295°
2026-05-08 14:01 31.73111 130.67785 1806 ft 84 kts 339°
2026-05-08 14:01 31.73672 130.67766 1806 ft 87 kts 19°
2026-05-08 14:01 31.74064 130.68343 1800 ft 97 kts 63°
2026-05-08 14:01 31.74094 130.69148 1823 ft 110 kts 96°
2026-05-08 14:02 31.73636 130.69952 1802 ft 125 kts 149°
2026-05-08 14:02 31.72878 130.70452 1792 ft 126 kts 148°
2026-05-08 14:02 31.72165 130.70966 1796 ft 117 kts 142°
2026-05-08 14:02 31.71880 130.71748 1788 ft 100 kts 66°
2026-05-08 14:03 31.72205 130.72440 1823 ft 104 kts 52°
2026-05-08 14:03 31.72594 130.73234 1811 ft 114 kts 52°
2026-05-08 14:03 31.72986 130.74018 1803 ft 109 kts 53°
2026-05-08 14:03 31.73360 130.74763 1792 ft 103 kts 53°
2026-05-08 14:04 31.73742 130.75441 1767 ft 96 kts 32°
2026-05-08 14:04 31.74330 130.75548 1728 ft 88 kts 350°
2026-05-08 14:04 31.74925 130.75443 1757 ft 84 kts 344°
2026-05-08 14:04 31.75464 130.75210 1780 ft 83 kts 333°
2026-05-08 14:05 31.76004 130.74854 1629 ft 92 kts 332°
2026-05-08 14:05 31.76559 130.74491 1530 ft 90 kts 332°
2026-05-08 14:05 31.77100 130.74128 1426 ft 89 kts 330°
2026-05-08 14:05 31.77622 130.73766 1307 ft 86 kts 330°
2026-05-08 14:06 31.78144 130.73423 1202 ft 85 kts 331°
2026-05-08 14:06 31.78626 130.73100 1079 ft 75 kts 330°
2026-05-08 14:06 31.79044 130.72816 957 ft 63 kts 330°
2026-05-08 14:06 31.79277 130.72658 896 ft 55 kts 329°
2026-05-08 14:07 31.79575 130.72456 880 ft 44 kts 330°
2026-05-08 14:07 31.79814 130.72294 883 ft 20 kts 330°
2026-05-08 14:07 31.79927 130.72218 885 ft 19 kts 331°
2026-05-08 14:07 31.80025 130.72130 886 ft 14 kts 285°
2026-05-08 14:08 31.80011 130.72065 887 ft 12 kts 239°
2026-05-08 14:08 31.79963 130.71995 885 ft 13 kts 199°
2026-05-08 14:08 31.79878 130.72027 883 ft 13 kts 150°
2026-05-08 14:08 31.79801 130.72079 882 ft 13 kts 149°
2026-05-08 14:09 31.79723 130.72132 880 ft 13 kts 150°
2026-05-08 14:09 31.79647 130.72184 880 ft 12 kts 150°
2026-05-08 14:09 31.79574 130.72233 879 ft 13 kts 150°
2026-05-08 14:09 31.79492 130.72289 880 ft 14 kts 150°
2026-05-08 14:10 31.79410 130.72344 879 ft 12 kts 150°
2026-05-08 14:10 31.79347 130.72386 878 ft 7 kts 149°
2026-05-08 14:10 31.79318 130.72390 878 ft 5 kts 231°
2026-05-08 14:10 31.79290 130.72351 877 ft 6 kts 229°
2026-05-08 14:11 31.79268 130.72347 878 ft 3 kts 151°
2026-05-08 14:11 31.79256 130.72353 878 ft 2 kts 155°
2026-05-08 14:11 31.79250 130.72353 880 ft 1 kts 212°
2026-05-08 14:11 31.79247 130.72347 880 ft 0 kts 244°
2026-05-08 14:12 31.79245 130.72344 880 ft 0 kts 240°
2026-05-08 14:12 31.79245 130.72343 880 ft 0 kts 233°
2026-05-08 14:12 31.79244 130.72342 878 ft 0 kts 199°